sensor_id;sensor_type;location;lat;lon;timestamp;temperature;humidity
66086;DHT22;52868;49.758;9.586;2023-02-13T00:01:36;6.40;77.80
66086;DHT22;52868;49.758;9.586;2023-02-13T00:04:02;6.30;78.00
66086;DHT22;52868;49.758;9.586;2023-02-13T00:06:29;6.40;78.20
66086;DHT22;52868;49.758;9.586;2023-02-13T00:08:55;6.40;78.00
66086;DHT22;52868;49.758;9.586;2023-02-13T00:11:21;6.30;78.10
66086;DHT22;52868;49.758;9.586;2023-02-13T00:13:47;6.20;78.30
66086;DHT22;52868;49.758;9.586;2023-02-13T00:16:13;6.30;78.40
66086;DHT22;52868;49.758;9.586;2023-02-13T00:18:38;6.20;78.50
66086;DHT22;52868;49.758;9.586;2023-02-13T00:21:07;6.30;78.40
66086;DHT22;52868;49.758;9.586;2023-02-13T00:23:35;6.30;78.30
66086;DHT22;52868;49.758;9.586;2023-02-13T00:26:08;6.30;78.30
66086;DHT22;52868;49.758;9.586;2023-02-13T00:28:35;6.30;78.40
66086;DHT22;52868;49.758;9.586;2023-02-13T00:31:10;6.30;78.40
66086;DHT22;52868;49.758;9.586;2023-02-13T00:33:37;6.20;78.40
66086;DHT22;52868;49.758;9.586;2023-02-13T00:38:34;6.20;78.20
66086;DHT22;52868;49.758;9.586;2023-02-13T00:41:00;6.10;78.40
66086;DHT22;52868;49.758;9.586;2023-02-13T00:43:26;6.10;78.30
66086;DHT22;52868;49.758;9.586;2023-02-13T00:45:52;6.10;78.30
66086;DHT22;52868;49.758;9.586;2023-02-13T00:48:18;6.10;78.10
66086;DHT22;52868;49.758;9.586;2023-02-13T00:50:45;6.00;78.10
66086;DHT22;52868;49.758;9.586;2023-02-13T00:53:12;6.00;78.40
66086;DHT22;52868;49.758;9.586;2023-02-13T00:55:38;6.00;78.30
66086;DHT22;52868;49.758;9.586;2023-02-13T00:58:04;6.00;78.50
66086;DHT22;52868;49.758;9.586;2023-02-13T01:00:29;6.00;78.60
66086;DHT22;52868;49.758;9.586;2023-02-13T01:02:55;6.10;78.30
66086;DHT22;52868;49.758;9.586;2023-02-13T01:05:21;6.00;78.10
66086;DHT22;52868;49.758;9.586;2023-02-13T01:07:47;6.00;77.90
66086;DHT22;52868;49.758;9.586;2023-02-13T01:10:13;6.00;77.90
66086;DHT22;52868;49.758;9.586;2023-02-13T01:12:39;6.00;78.00
66086;DHT22;52868;49.758;9.586;2023-02-13T01:15:05;5.90;77.80
66086;DHT22;52868;49.758;9.586;2023-02-13T01:17:31;5.90;77.80
66086;DHT22;52868;49.758;9.586;2023-02-13T01:19:57;5.90;77.80
66086;DHT22;52868;49.758;9.586;2023-02-13T01:22:23;5.80;78.00
66086;DHT22;52868;49.758;9.586;2023-02-13T01:24:49;5.90;78.10
66086;DHT22;52868;49.758;9.586;2023-02-13T01:27:14;5.80;77.80
66086;DHT22;52868;49.758;9.586;2023-02-13T01:29:40;5.80;77.80
66086;DHT22;52868;49.758;9.586;2023-02-13T01:32:06;5.70;77.80
66086;DHT22;52868;49.758;9.586;2023-02-13T01:34:33;5.70;77.50
66086;DHT22;52868;49.758;9.586;2023-02-13T01:36:59;5.60;76.80
66086;DHT22;52868;49.758;9.586;2023-02-13T01:39:25;5.50;76.90
66086;DHT22;52868;49.758;9.586;2023-02-13T01:41:51;5.50;77.50
66086;DHT22;52868;49.758;9.586;2023-02-13T01:44:46;5.50;77.20
66086;DHT22;52868;49.758;9.586;2023-02-13T01:47:17;5.40;76.90
66086;DHT22;52868;49.758;9.586;2023-02-13T01:49:46;5.40;77.30
66086;DHT22;52868;49.758;9.586;2023-02-13T01:52:12;5.40;77.30
66086;DHT22;52868;49.758;9.586;2023-02-13T01:54:39;5.40;77.30
66086;DHT22;52868;49.758;9.586;2023-02-13T01:57:18;5.30;77.20
66086;DHT22;52868;49.758;9.586;2023-02-13T01:59:54;5.30;77.30
66086;DHT22;52868;49.758;9.586;2023-02-13T02:02:22;5.30;77.20
66086;DHT22;52868;49.758;9.586;2023-02-13T02:04:49;5.30;77.20
66086;DHT22;52868;49.758;9.586;2023-02-13T02:07:22;5.30;76.90
66086;DHT22;52868;49.758;9.586;2023-02-13T02:09:49;5.20;76.90
66086;DHT22;52868;49.758;9.586;2023-02-13T02:12:24;5.20;76.90
66086;DHT22;52868;49.758;9.586;2023-02-13T02:14:53;5.20;77.00
66086;DHT22;52868;49.758;9.586;2023-02-13T02:17:22;5.20;76.80
66086;DHT22;52868;49.758;9.586;2023-02-13T02:39:24;5.10;76.50
66086;DHT22;52868;49.758;9.586;2023-02-13T02:42:16;5.10;76.00
66086;DHT22;52868;49.758;9.586;2023-02-13T02:45:28;5.10;76.20
66086;DHT22;52868;49.758;9.586;2023-02-13T02:47:58;5.00;76.30
66086;DHT22;52868;49.758;9.586;2023-02-13T02:50:52;5.10;76.80
66086;DHT22;52868;49.758;9.586;2023-02-13T02:53:42;5.10;77.00
66086;DHT22;52868;49.758;9.586;2023-02-13T02:56:26;5.10;76.60
66086;DHT22;52868;49.758;9.586;2023-02-13T02:59:11;5.10;76.60
66086;DHT22;52868;49.758;9.586;2023-02-13T03:01:58;5.00;76.80
66086;DHT22;52868;49.758;9.586;2023-02-13T03:04:46;5.00;77.00
66086;DHT22;52868;49.758;9.586;2023-02-13T03:07:32;5.00;77.40
66086;DHT22;52868;49.758;9.586;2023-02-13T03:10:04;5.10;77.10
66086;DHT22;52868;49.758;9.586;2023-02-13T03:15:44;5.10;77.30
66086;DHT22;52868;49.758;9.586;2023-02-13T03:18:33;5.20;77.60
66086;DHT22;52868;49.758;9.586;2023-02-13T03:21:37;5.20;77.60
66086;DHT22;52868;49.758;9.586;2023-02-13T03:24:32;5.20;77.80
66086;DHT22;52868;49.758;9.586;2023-02-13T03:27:08;5.20;77.20
66086;DHT22;52868;49.758;9.586;2023-02-13T03:29:48;5.20;77.40
66086;DHT22;52868;49.758;9.586;2023-02-13T03:32:44;5.20;77.80
66086;DHT22;52868;49.758;9.586;2023-02-13T03:35:31;5.30;77.90
66086;DHT22;52868;49.758;9.586;2023-02-13T03:41:09;5.30;78.30
66086;DHT22;52868;49.758;9.586;2023-02-13T03:46:15;5.30;78.40
66086;DHT22;52868;49.758;9.586;2023-02-13T03:48:44;5.30;78.40
66086;DHT22;52868;49.758;9.586;2023-02-13T03:51:38;5.30;78.60
66086;DHT22;52868;49.758;9.586;2023-02-13T03:57:14;5.30;79.30
66086;DHT22;52868;49.758;9.586;2023-02-13T04:00:02;5.40;78.90
66086;DHT22;52868;49.758;9.586;2023-02-13T04:02:33;5.40;78.70
66086;DHT22;52868;49.758;9.586;2023-02-13T04:05:08;5.40;78.80
66086;DHT22;52868;49.758;9.586;2023-02-13T04:07:35;5.40;78.70
66086;DHT22;52868;49.758;9.586;2023-02-13T04:10:20;5.30;78.80
66086;DHT22;52868;49.758;9.586;2023-02-13T04:13:03;5.30;79.00
66086;DHT22;52868;49.758;9.586;2023-02-13T04:16:02;5.30;79.00
66086;DHT22;52868;49.758;9.586;2023-02-13T04:18:31;5.40;78.90
66086;DHT22;52868;49.758;9.586;2023-02-13T04:21:01;5.30;79.00
66086;DHT22;52868;49.758;9.586;2023-02-13T04:23:28;5.40;78.80
66086;DHT22;52868;49.758;9.586;2023-02-13T04:25:55;5.30;79.00
66086;DHT22;52868;49.758;9.586;2023-02-13T04:28:21;5.30;79.30
66086;DHT22;52868;49.758;9.586;2023-02-13T04:30:47;5.30;79.40
66086;DHT22;52868;49.758;9.586;2023-02-13T04:33:14;5.30;79.40
66086;DHT22;52868;49.758;9.586;2023-02-13T04:35:40;5.30;79.40
66086;DHT22;52868;49.758;9.586;2023-02-13T04:38:06;5.30;79.30
66086;DHT22;52868;49.758;9.586;2023-02-13T04:40:32;5.40;79.10
66086;DHT22;52868;49.758;9.586;2023-02-13T04:42:58;5.40;79.10
66086;DHT22;52868;49.758;9.586;2023-02-13T04:45:23;5.40;79.00
66086;DHT22;52868;49.758;9.586;2023-02-13T04:47:54;5.40;79.20
66086;DHT22;52868;49.758;9.586;2023-02-13T04:50:20;5.40;79.10
66086;DHT22;52868;49.758;9.586;2023-02-13T04:52:46;5.40;79.00
66086;DHT22;52868;49.758;9.586;2023-02-13T04:55:13;5.40;79.10
66086;DHT22;52868;49.758;9.586;2023-02-13T04:57:39;5.40;79.10
66086;DHT22;52868;49.758;9.586;2023-02-13T05:00:06;5.40;78.80
66086;DHT22;52868;49.758;9.586;2023-02-13T05:02:32;5.30;79.10
66086;DHT22;52868;49.758;9.586;2023-02-13T05:04:57;5.30;79.50
66086;DHT22;52868;49.758;9.586;2023-02-13T05:07:23;5.40;79.30
66086;DHT22;52868;49.758;9.586;2023-02-13T05:09:49;5.40;79.00
66086;DHT22;52868;49.758;9.586;2023-02-13T05:12:15;5.40;78.90
66086;DHT22;52868;49.758;9.586;2023-02-13T05:14:41;5.40;78.90
66086;DHT22;52868;49.758;9.586;2023-02-13T05:17:07;5.40;78.80
66086;DHT22;52868;49.758;9.586;2023-02-13T05:19:32;5.50;78.60
66086;DHT22;52868;49.758;9.586;2023-02-13T05:21:58;5.40;78.50
66086;DHT22;52868;49.758;9.586;2023-02-13T05:24:43;5.50;78.40
66086;DHT22;52868;49.758;9.586;2023-02-13T05:27:09;5.50;78.30
66086;DHT22;52868;49.758;9.586;2023-02-13T05:29:34;5.50;78.10
66086;DHT22;52868;49.758;9.586;2023-02-13T05:32:00;5.50;78.20
66086;DHT22;52868;49.758;9.586;2023-02-13T05:34:27;5.50;78.10
66086;DHT22;52868;49.758;9.586;2023-02-13T05:36:53;5.40;78.20
66086;DHT22;52868;49.758;9.586;2023-02-13T05:39:20;5.40;78.20
66086;DHT22;52868;49.758;9.586;2023-02-13T05:41:46;5.40;78.30
66086;DHT22;52868;49.758;9.586;2023-02-13T05:44:13;5.30;78.60
66086;DHT22;52868;49.758;9.586;2023-02-13T05:46:40;5.30;78.60
66086;DHT22;52868;49.758;9.586;2023-02-13T05:49:07;5.30;78.50
66086;DHT22;52868;49.758;9.586;2023-02-13T05:51:36;5.30;78.40
66086;DHT22;52868;49.758;9.586;2023-02-13T05:54:02;5.30;78.60
66086;DHT22;52868;49.758;9.586;2023-02-13T05:56:28;5.30;78.40
66086;DHT22;52868;49.758;9.586;2023-02-13T05:58:55;5.30;78.20
66086;DHT22;52868;49.758;9.586;2023-02-13T06:01:22;5.20;78.40
66086;DHT22;52868;49.758;9.586;2023-02-13T06:03:48;5.20;78.60
66086;DHT22;52868;49.758;9.586;2023-02-13T06:06:14;5.30;78.40
66086;DHT22;52868;49.758;9.586;2023-02-13T06:08:40;5.30;78.10
66086;DHT22;52868;49.758;9.586;2023-02-13T06:11:07;5.20;78.10
66086;DHT22;52868;49.758;9.586;2023-02-13T06:13:32;5.20;78.30
66086;DHT22;52868;49.758;9.586;2023-02-13T06:15:58;5.30;78.30
66086;DHT22;52868;49.758;9.586;2023-02-13T06:18:24;5.30;78.00
66086;DHT22;52868;49.758;9.586;2023-02-13T06:20:50;5.30;77.90
66086;DHT22;52868;49.758;9.586;2023-02-13T06:23:16;5.30;77.80
66086;DHT22;52868;49.758;9.586;2023-02-13T06:25:42;5.30;77.70
66086;DHT22;52868;49.758;9.586;2023-02-13T06:28:08;5.20;77.80
66086;DHT22;52868;49.758;9.586;2023-02-13T06:30:34;5.30;77.80
66086;DHT22;52868;49.758;9.586;2023-02-13T06:33:00;5.20;77.70
66086;DHT22;52868;49.758;9.586;2023-02-13T06:35:26;5.30;78.00
66086;DHT22;52868;49.758;9.586;2023-02-13T06:37:52;5.30;77.80
66086;DHT22;52868;49.758;9.586;2023-02-13T06:40:18;5.30;77.80
66086;DHT22;52868;49.758;9.586;2023-02-13T06:42:44;5.30;77.80
66086;DHT22;52868;49.758;9.586;2023-02-13T06:45:11;5.30;77.70
66086;DHT22;52868;49.758;9.586;2023-02-13T06:47:45;5.20;78.00
66086;DHT22;52868;49.758;9.586;2023-02-13T06:50:13;5.30;78.00
66086;DHT22;52868;49.758;9.586;2023-02-13T06:52:43;5.30;77.80
66086;DHT22;52868;49.758;9.586;2023-02-13T06:55:09;5.30;77.70
66086;DHT22;52868;49.758;9.586;2023-02-13T06:57:35;5.30;77.70
66086;DHT22;52868;49.758;9.586;2023-02-13T07:00:02;5.30;77.60
66086;DHT22;52868;49.758;9.586;2023-02-13T07:02:31;5.20;77.60
66086;DHT22;52868;49.758;9.586;2023-02-13T07:04:57;5.20;78.00
66086;DHT22;52868;49.758;9.586;2023-02-13T07:07:23;5.30;77.80
66086;DHT22;52868;49.758;9.586;2023-02-13T07:09:49;5.30;77.60
66086;DHT22;52868;49.758;9.586;2023-02-13T07:12:15;5.30;77.40
66086;DHT22;52868;49.758;9.586;2023-02-13T07:14:41;5.30;77.60
66086;DHT22;52868;49.758;9.586;2023-02-13T07:17:07;5.20;77.60
66086;DHT22;52868;49.758;9.586;2023-02-13T07:19:35;5.00;78.30
66086;DHT22;52868;49.758;9.586;2023-02-13T07:22:01;5.00;78.80
66086;DHT22;52868;49.758;9.586;2023-02-13T07:24:27;5.00;78.80
66086;DHT22;52868;49.758;9.586;2023-02-13T07:26:53;5.10;78.60
66086;DHT22;52868;49.758;9.586;2023-02-13T07:29:18;5.20;78.30
66086;DHT22;52868;49.758;9.586;2023-02-13T07:31:44;5.20;78.30
66086;DHT22;52868;49.758;9.586;2023-02-13T07:34:10;5.10;78.70
66086;DHT22;52868;49.758;9.586;2023-02-13T07:36:36;5.10;78.60
66086;DHT22;52868;49.758;9.586;2023-02-13T07:39:03;5.00;78.60
66086;DHT22;52868;49.758;9.586;2023-02-13T07:41:29;5.10;79.00
66086;DHT22;52868;49.758;9.586;2023-02-13T07:43:55;5.00;78.80
66086;DHT22;52868;49.758;9.586;2023-02-13T07:46:21;5.00;79.00
66086;DHT22;52868;49.758;9.586;2023-02-13T07:48:47;5.00;79.00
66086;DHT22;52868;49.758;9.586;2023-02-13T07:51:13;5.00;78.90
66086;DHT22;52868;49.758;9.586;2023-02-13T07:53:39;5.10;78.60
66086;DHT22;52868;49.758;9.586;2023-02-13T07:56:06;5.10;78.60
66086;DHT22;52868;49.758;9.586;2023-02-13T07:58:32;5.10;78.50
66086;DHT22;52868;49.758;9.586;2023-02-13T08:00:58;5.10;78.50
66086;DHT22;52868;49.758;9.586;2023-02-13T08:03:23;5.00;79.40
66086;DHT22;52868;49.758;9.586;2023-02-13T08:05:49;5.00;79.00
66086;DHT22;52868;49.758;9.586;2023-02-13T08:08:15;5.00;79.10
66086;DHT22;52868;49.758;9.586;2023-02-13T08:10:41;5.10;79.00
66086;DHT22;52868;49.758;9.586;2023-02-13T08:13:26;5.10;78.70
66086;DHT22;52868;49.758;9.586;2023-02-13T08:15:52;5.20;78.70
66086;DHT22;52868;49.758;9.586;2023-02-13T08:18:18;5.20;78.50
66086;DHT22;52868;49.758;9.586;2023-02-13T08:20:44;5.20;78.30
66086;DHT22;52868;49.758;9.586;2023-02-13T08:23:10;5.20;78.20
66086;DHT22;52868;49.758;9.586;2023-02-13T08:25:37;5.30;77.90
66086;DHT22;52868;49.758;9.586;2023-02-13T08:28:04;5.20;77.90
66086;DHT22;52868;49.758;9.586;2023-02-13T08:30:30;5.30;78.00
66086;DHT22;52868;49.758;9.586;2023-02-13T08:32:56;5.30;78.00
66086;DHT22;52868;49.758;9.586;2023-02-13T08:35:22;5.30;77.70
66086;DHT22;52868;49.758;9.586;2023-02-13T08:37:52;5.30;77.90
66086;DHT22;52868;49.758;9.586;2023-02-13T08:40:18;5.20;77.90
66086;DHT22;52868;49.758;9.586;2023-02-13T08:42:44;5.20;78.40
66086;DHT22;52868;49.758;9.586;2023-02-13T08:45:09;5.10;78.50
66086;DHT22;52868;49.758;9.586;2023-02-13T08:47:37;5.00;78.60
66086;DHT22;52868;49.758;9.586;2023-02-13T08:50:03;5.00;78.70
66086;DHT22;52868;49.758;9.586;2023-02-13T08:52:29;5.10;78.60
66086;DHT22;52868;49.758;9.586;2023-02-13T08:54:55;5.20;78.70
66086;DHT22;52868;49.758;9.586;2023-02-13T08:57:20;5.20;78.70
66086;DHT22;52868;49.758;9.586;2023-02-13T08:59:46;5.20;78.40
66086;DHT22;52868;49.758;9.586;2023-02-13T09:02:12;5.20;78.30
66086;DHT22;52868;49.758;9.586;2023-02-13T09:04:39;5.20;78.50
66086;DHT22;52868;49.758;9.586;2023-02-13T09:07:05;5.20;78.50
66086;DHT22;52868;49.758;9.586;2023-02-13T09:09:31;5.30;78.40
66086;DHT22;52868;49.758;9.586;2023-02-13T09:11:57;5.30;78.20
66086;DHT22;52868;49.758;9.586;2023-02-13T09:14:23;5.30;78.10
66086;DHT22;52868;49.758;9.586;2023-02-13T09:16:49;5.30;78.10
66086;DHT22;52868;49.758;9.586;2023-02-13T09:19:15;5.20;78.80
66086;DHT22;52868;49.758;9.586;2023-02-13T09:21:40;5.20;78.80
66086;DHT22;52868;49.758;9.586;2023-02-13T09:24:08;5.10;78.90
66086;DHT22;52868;49.758;9.586;2023-02-13T09:26:34;5.20;79.10
66086;DHT22;52868;49.758;9.586;2023-02-13T09:29:00;5.20;78.90
66086;DHT22;52868;49.758;9.586;2023-02-13T09:31:25;5.20;78.80
66086;DHT22;52868;49.758;9.586;2023-02-13T09:33:51;5.20;78.80
66086;DHT22;52868;49.758;9.586;2023-02-13T09:36:22;5.20;79.00
66086;DHT22;52868;49.758;9.586;2023-02-13T09:38:54;5.10;79.30
66086;DHT22;52868;49.758;9.586;2023-02-13T09:41:29;5.20;79.20
66086;DHT22;52868;49.758;9.586;2023-02-13T09:49:04;5.20;79.40
66086;DHT22;52868;49.758;9.586;2023-02-13T09:51:31;5.30;79.30
66086;DHT22;52868;49.758;9.586;2023-02-13T09:54:03;5.30;79.30
66086;DHT22;52868;49.758;9.586;2023-02-13T09:59:05;5.30;79.20
66086;DHT22;52868;49.758;9.586;2023-02-13T10:01:40;5.30;79.40
66086;DHT22;52868;49.758;9.586;2023-02-13T10:04:30;5.30;79.30
66086;DHT22;52868;49.758;9.586;2023-02-13T10:07:36;5.40;79.20
66086;DHT22;52868;49.758;9.586;2023-02-13T10:10:31;5.40;79.10
66086;DHT22;52868;49.758;9.586;2023-02-13T10:18:24;5.40;79.20
66086;DHT22;52868;49.758;9.586;2023-02-13T10:20:59;5.50;79.30
66086;DHT22;52868;49.758;9.586;2023-02-13T10:23:41;5.50;79.20
66086;DHT22;52868;49.758;9.586;2023-02-13T10:26:19;5.50;79.30
66086;DHT22;52868;49.758;9.586;2023-02-13T10:28:59;5.50;79.20
66086;DHT22;52868;49.758;9.586;2023-02-13T10:31:45;5.50;79.40
66086;DHT22;52868;49.758;9.586;2023-02-13T10:34:16;5.50;79.40
66086;DHT22;52868;49.758;9.586;2023-02-13T10:36:55;5.40;79.80
66086;DHT22;52868;49.758;9.586;2023-02-13T10:41:52;5.60;79.50
66086;DHT22;52868;49.758;9.586;2023-02-13T10:44:53;5.60;79.50
66086;DHT22;52868;49.758;9.586;2023-02-13T11:00:56;5.70;79.30
66086;DHT22;52868;49.758;9.586;2023-02-13T11:03:25;5.70;79.50
66086;DHT22;52868;49.758;9.586;2023-02-13T11:05:53;5.80;79.40
66086;DHT22;52868;49.758;9.586;2023-02-13T11:08:37;5.80;79.30
66086;DHT22;52868;49.758;9.586;2023-02-13T11:11:27;5.70;79.50
66086;DHT22;52868;49.758;9.586;2023-02-13T11:16:46;5.90;78.90
66086;DHT22;52868;49.758;9.586;2023-02-13T11:21:59;5.90;79.00
66086;DHT22;52868;49.758;9.586;2023-02-13T11:24:27;6.00;79.60
66086;DHT22;52868;49.758;9.586;2023-02-13T11:27:05;6.00;79.40
66086;DHT22;52868;49.758;9.586;2023-02-13T11:29:36;6.00;79.20
66086;DHT22;52868;49.758;9.586;2023-02-13T11:34:32;6.10;79.00
66086;DHT22;52868;49.758;9.586;2023-02-13T11:37:24;6.10;79.00
66086;DHT22;52868;49.758;9.586;2023-02-13T11:39:52;6.20;79.00
66086;DHT22;52868;49.758;9.586;2023-02-13T11:45:22;6.20;79.20
66086;DHT22;52868;49.758;9.586;2023-02-13T11:47:49;6.20;79.00
66086;DHT22;52868;49.758;9.586;2023-02-13T11:50:28;6.20;79.00
66086;DHT22;52868;49.758;9.586;2023-02-13T11:53:01;6.20;79.20
66086;DHT22;52868;49.758;9.586;2023-02-13T11:55:36;6.20;79.10
66086;DHT22;52868;49.758;9.586;2023-02-13T12:00:38;6.30;79.20
66086;DHT22;52868;49.758;9.586;2023-02-13T12:06:25;6.30;79.10
66086;DHT22;52868;49.758;9.586;2023-02-13T12:08:51;6.30;79.10
66086;DHT22;52868;49.758;9.586;2023-02-13T12:12:08;6.30;79.10
66086;DHT22;52868;49.758;9.586;2023-02-13T12:14:33;6.40;79.00
66086;DHT22;52868;49.758;9.586;2023-02-13T12:17:06;6.40;78.90
66086;DHT22;52868;49.758;9.586;2023-02-13T12:19:43;6.40;79.20
66086;DHT22;52868;49.758;9.586;2023-02-13T12:25:24;6.50;78.90
66086;DHT22;52868;49.758;9.586;2023-02-13T12:33:14;6.50;79.00
66086;DHT22;52868;49.758;9.586;2023-02-13T12:36:24;6.60;78.90
66086;DHT22;52868;49.758;9.586;2023-02-13T12:41:32;6.70;78.90
66086;DHT22;52868;49.758;9.586;2023-02-13T12:46:50;6.70;78.70
66086;DHT22;52868;49.758;9.586;2023-02-13T13:03:28;6.70;78.40
66086;DHT22;52868;49.758;9.586;2023-02-13T13:16:44;6.90;78.50
66086;DHT22;52868;49.758;9.586;2023-02-13T13:27:25;6.90;78.80
66086;DHT22;52868;49.758;9.586;2023-02-13T13:29:56;7.00;78.70
66086;DHT22;52868;49.758;9.586;2023-02-13T13:32:25;7.00;78.60
66086;DHT22;52868;49.758;9.586;2023-02-13T13:34:52;7.10;78.90
66086;DHT22;52868;49.758;9.586;2023-02-13T13:37:35;7.10;78.70
66086;DHT22;52868;49.758;9.586;2023-02-13T13:46:20;7.00;78.70
66086;DHT22;52868;49.758;9.586;2023-02-13T13:51:15;7.10;78.60
66086;DHT22;52868;49.758;9.586;2023-02-13T14:05:19;7.20;78.70
66086;DHT22;52868;49.758;9.586;2023-02-13T14:07:51;7.30;78.50
66086;DHT22;52868;49.758;9.586;2023-02-13T14:20:42;7.30;78.60
66086;DHT22;52868;49.758;9.586;2023-02-13T14:23:21;7.30;78.40
66086;DHT22;52868;49.758;9.586;2023-02-13T14:25:48;7.30;78.50
66086;DHT22;52868;49.758;9.586;2023-02-13T14:28:24;7.30;78.60
66086;DHT22;52868;49.758;9.586;2023-02-13T14:30:51;7.30;78.40
66086;DHT22;52868;49.758;9.586;2023-02-13T14:33:29;7.30;78.00
66086;DHT22;52868;49.758;9.586;2023-02-13T14:36:01;7.30;78.30
66086;DHT22;52868;49.758;9.586;2023-02-13T14:38:27;7.30;78.30
66086;DHT22;52868;49.758;9.586;2023-02-13T14:40:54;7.30;78.40
66086;DHT22;52868;49.758;9.586;2023-02-13T14:49:09;7.40;78.00
66086;DHT22;52868;49.758;9.586;2023-02-13T14:51:44;7.50;78.20
66086;DHT22;52868;49.758;9.586;2023-02-13T14:56:44;7.40;78.40
66086;DHT22;52868;49.758;9.586;2023-02-13T14:59:17;7.50;78.30
66086;DHT22;52868;49.758;9.586;2023-02-13T15:02:13;7.50;78.40
66086;DHT22;52868;49.758;9.586;2023-02-13T15:04:44;7.50;78.10
66086;DHT22;52868;49.758;9.586;2023-02-13T15:07:20;7.50;78.00
66086;DHT22;52868;49.758;9.586;2023-02-13T15:10:03;7.50;78.10
66086;DHT22;52868;49.758;9.586;2023-02-13T15:15:42;7.50;78.40
66086;DHT22;52868;49.758;9.586;2023-02-13T15:18:17;7.60;78.30
66086;DHT22;52868;49.758;9.586;2023-02-13T15:20:44;7.70;78.00
66086;DHT22;52868;49.758;9.586;2023-02-13T15:23:22;7.50;77.90
66086;DHT22;52868;49.758;9.586;2023-02-13T15:25:59;7.60;78.00
66086;DHT22;52868;49.758;9.586;2023-02-13T15:28:26;7.60;78.10
66086;DHT22;52868;49.758;9.586;2023-02-13T15:30:58;7.70;78.00
66086;DHT22;52868;49.758;9.586;2023-02-13T15:33:32;7.70;77.90
66086;DHT22;52868;49.758;9.586;2023-02-13T15:36:00;7.70;78.00
66086;DHT22;52868;49.758;9.586;2023-02-13T15:41:01;7.70;77.90
66086;DHT22;52868;49.758;9.586;2023-02-13T15:43:36;7.60;77.80
66086;DHT22;52868;49.758;9.586;2023-02-13T15:46:23;7.60;77.80
66086;DHT22;52868;49.758;9.586;2023-02-13T15:48:51;7.60;77.80
66086;DHT22;52868;49.758;9.586;2023-02-13T15:51:22;7.60;78.10
66086;DHT22;52868;49.758;9.586;2023-02-13T15:53:55;7.60;77.90
66086;DHT22;52868;49.758;9.586;2023-02-13T15:56:22;7.60;77.90
66086;DHT22;52868;49.758;9.586;2023-02-13T15:58:48;7.60;77.90
66086;DHT22;52868;49.758;9.586;2023-02-13T16:01:15;7.70;77.80
66086;DHT22;52868;49.758;9.586;2023-02-13T16:03:43;7.60;77.70
66086;DHT22;52868;49.758;9.586;2023-02-13T16:06:18;7.60;77.60
66086;DHT22;52868;49.758;9.586;2023-02-13T16:08:52;7.50;77.60
66086;DHT22;52868;49.758;9.586;2023-02-13T16:11:19;7.50;77.70
66086;DHT22;52868;49.758;9.586;2023-02-13T16:16:52;7.50;77.70
66086;DHT22;52868;49.758;9.586;2023-02-13T16:19:35;7.50;77.60
66086;DHT22;52868;49.758;9.586;2023-02-13T16:22:06;7.50;77.60
66086;DHT22;52868;49.758;9.586;2023-02-13T16:24:39;7.40;77.60
66086;DHT22;52868;49.758;9.586;2023-02-13T16:27:12;7.50;77.70
66086;DHT22;52868;49.758;9.586;2023-02-13T16:29:49;7.50;77.60
66086;DHT22;52868;49.758;9.586;2023-02-13T16:32:24;7.40;77.50
66086;DHT22;52868;49.758;9.586;2023-02-13T16:34:52;7.40;77.40
66086;DHT22;52868;49.758;9.586;2023-02-13T16:37:30;7.40;77.30
66086;DHT22;52868;49.758;9.586;2023-02-13T16:39:57;7.40;77.20
66086;DHT22;52868;49.758;9.586;2023-02-13T16:42:41;7.40;77.00
66086;DHT22;52868;49.758;9.586;2023-02-13T16:45:22;7.30;77.20
66086;DHT22;52868;49.758;9.586;2023-02-13T16:47:58;7.30;77.10
66086;DHT22;52868;49.758;9.586;2023-02-13T16:50:27;7.20;77.10
66086;DHT22;52868;49.758;9.586;2023-02-13T16:53:02;7.30;77.30
66086;DHT22;52868;49.758;9.586;2023-02-13T16:55:28;7.20;77.10
66086;DHT22;52868;49.758;9.586;2023-02-13T16:58:04;7.20;77.20
66086;DHT22;52868;49.758;9.586;2023-02-13T17:00:30;7.10;77.10
66086;DHT22;52868;49.758;9.586;2023-02-13T17:02:56;7.10;77.20
66086;DHT22;52868;49.758;9.586;2023-02-13T17:05:25;7.00;77.20
66086;DHT22;52868;49.758;9.586;2023-02-13T17:07:53;7.00;77.10
66086;DHT22;52868;49.758;9.586;2023-02-13T17:10:23;7.00;77.20
66086;DHT22;52868;49.758;9.586;2023-02-13T17:12:52;7.00;77.30
66086;DHT22;52868;49.758;9.586;2023-02-13T17:15:21;7.00;77.40
66086;DHT22;52868;49.758;9.586;2023-02-13T17:17:47;7.00;77.40
66086;DHT22;52868;49.758;9.586;2023-02-13T17:20:20;7.00;77.30
66086;DHT22;52868;49.758;9.586;2023-02-13T17:22:49;6.90;77.30
66086;DHT22;52868;49.758;9.586;2023-02-13T17:25:27;6.90;77.40
66086;DHT22;52868;49.758;9.586;2023-02-13T17:27:59;6.80;77.40
66086;DHT22;52868;49.758;9.586;2023-02-13T17:30:30;6.80;77.50
66086;DHT22;52868;49.758;9.586;2023-02-13T17:33:00;6.80;77.40
66086;DHT22;52868;49.758;9.586;2023-02-13T17:35:27;6.80;77.30
66086;DHT22;52868;49.758;9.586;2023-02-13T17:37:53;6.80;77.30
66086;DHT22;52868;49.758;9.586;2023-02-13T17:40:21;6.80;77.20
66086;DHT22;52868;49.758;9.586;2023-02-13T17:42:52;6.70;77.10
66086;DHT22;52868;49.758;9.586;2023-02-13T17:45:19;6.70;77.10
66086;DHT22;52868;49.758;9.586;2023-02-13T17:47:46;6.70;77.00
66086;DHT22;52868;49.758;9.586;2023-02-13T17:50:13;6.70;77.00
66086;DHT22;52868;49.758;9.586;2023-02-13T17:52:39;6.70;77.20
66086;DHT22;52868;49.758;9.586;2023-02-13T17:55:21;6.60;77.10
66086;DHT22;52868;49.758;9.586;2023-02-13T17:57:47;6.60;77.10
66086;DHT22;52868;49.758;9.586;2023-02-13T18:00:15;6.50;76.90
66086;DHT22;52868;49.758;9.586;2023-02-13T18:02:41;6.50;77.10
66086;DHT22;52868;49.758;9.586;2023-02-13T18:05:08;6.50;77.10
66086;DHT22;52868;49.758;9.586;2023-02-13T18:07:34;6.40;77.10
66086;DHT22;52868;49.758;9.586;2023-02-13T18:10:00;6.30;77.10
66086;DHT22;52868;49.758;9.586;2023-02-13T18:12:26;6.30;77.20
66086;DHT22;52868;49.758;9.586;2023-02-13T18:14:53;6.30;77.00
66086;DHT22;52868;49.758;9.586;2023-02-13T18:17:19;6.30;77.00
66086;DHT22;52868;49.758;9.586;2023-02-13T18:19:46;6.30;77.00
66086;DHT22;52868;49.758;9.586;2023-02-13T18:22:12;6.20;77.10
66086;DHT22;52868;49.758;9.586;2023-02-13T18:24:39;6.20;77.00
66086;DHT22;52868;49.758;9.586;2023-02-13T18:27:06;6.20;76.70
66086;DHT22;52868;49.758;9.586;2023-02-13T18:29:33;6.10;76.70
66086;DHT22;52868;49.758;9.586;2023-02-13T18:32:03;6.10;77.00
66086;DHT22;52868;49.758;9.586;2023-02-13T18:34:30;6.20;77.10
66086;DHT22;52868;49.758;9.586;2023-02-13T18:36:56;6.10;77.10
66086;DHT22;52868;49.758;9.586;2023-02-13T18:39:21;6.10;77.20
66086;DHT22;52868;49.758;9.586;2023-02-13T18:41:47;6.10;77.40
66086;DHT22;52868;49.758;9.586;2023-02-13T18:44:13;6.10;77.00
66086;DHT22;52868;49.758;9.586;2023-02-13T18:46:39;6.10;77.30
66086;DHT22;52868;49.758;9.586;2023-02-13T18:49:05;6.10;77.30
66086;DHT22;52868;49.758;9.586;2023-02-13T18:51:31;6.20;76.90
66086;DHT22;52868;49.758;9.586;2023-02-13T18:53:57;6.10;76.60
66086;DHT22;52868;49.758;9.586;2023-02-13T18:56:24;6.10;76.50
66086;DHT22;52868;49.758;9.586;2023-02-13T18:58:50;6.00;76.20
66086;DHT22;52868;49.758;9.586;2023-02-13T19:01:20;5.90;76.30